sensor_id;sensor_type;location;lat;lon;timestamp;temperature;humidity
10437;DHT22;5265;50.006;9.202;2023-03-12T07:59:24;1.00;99.90
10437;DHT22;5265;50.006;9.202;2023-03-12T08:01:52;1.00;99.90
10437;DHT22;5265;50.006;9.202;2023-03-12T08:04:19;1.20;99.90
10437;DHT22;5265;50.006;9.202;2023-03-12T08:06:45;1.30;99.90
10437;DHT22;5265;50.006;9.202;2023-03-12T08:09:12;1.20;99.90
10437;DHT22;5265;50.006;9.202;2023-03-12T08:11:39;1.50;99.90
10437;DHT22;5265;50.006;9.202;2023-03-12T08:14:06;1.30;99.90
10437;DHT22;5265;50.006;9.202;2023-03-12T08:16:35;1.20;99.90
10437;DHT22;5265;50.006;9.202;2023-03-12T08:21:30;1.50;99.90
10437;DHT22;5265;50.006;9.202;2023-03-12T08:23:57;1.60;99.90
10437;DHT22;5265;50.006;9.202;2023-03-12T08:26:24;1.50;99.90
10437;DHT22;5265;50.006;9.202;2023-03-12T08:28:51;1.70;99.90
10437;DHT22;5265;50.006;9.202;2023-03-12T08:31:18;1.60;99.90
10437;DHT22;5265;50.006;9.202;2023-03-12T08:33:47;1.70;99.90
10437;DHT22;5265;50.006;9.202;2023-03-12T08:36:14;2.00;99.90
10437;DHT22;5265;50.006;9.202;2023-03-12T08:38:41;2.10;99.90
10437;DHT22;5265;50.006;9.202;2023-03-12T08:41:08;2.10;99.90
10437;DHT22;5265;50.006;9.202;2023-03-12T08:43:35;2.10;99.90
10437;DHT22;5265;50.006;9.202;2023-03-12T08:46:03;1.90;99.90
10437;DHT22;5265;50.006;9.202;2023-03-12T08:48:30;2.00;99.90
10437;DHT22;5265;50.006;9.202;2023-03-12T08:50:59;1.90;99.90
10437;DHT22;5265;50.006;9.202;2023-03-12T08:53:29;2.00;99.90
10437;DHT22;5265;50.006;9.202;2023-03-12T08:55:56;2.10;99.90
10437;DHT22;5265;50.006;9.202;2023-03-12T08:58:23;2.00;99.90
10437;DHT22;5265;50.006;9.202;2023-03-12T09:00:51;2.30;99.90
10437;DHT22;5265;50.006;9.202;2023-03-12T09:03:18;2.20;99.90
10437;DHT22;5265;50.006;9.202;2023-03-12T09:05:46;2.30;99.90
10437;DHT22;5265;50.006;9.202;2023-03-12T09:08:15;2.20;99.90
10437;DHT22;5265;50.006;9.202;2023-03-12T09:10:46;2.30;99.90
10437;DHT22;5265;50.006;9.202;2023-03-12T09:13:13;2.20;99.90
10437;DHT22;5265;50.006;9.202;2023-03-12T09:18:08;2.50;99.90
10437;DHT22;5265;50.006;9.202;2023-03-12T09:20:35;2.50;99.90
10437;DHT22;5265;50.006;9.202;2023-03-12T09:23:02;2.40;99.90
10437;DHT22;5265;50.006;9.202;2023-03-12T09:25:31;2.50;99.90
10437;DHT22;5265;50.006;9.202;2023-03-12T09:27:58;2.30;99.90
10437;DHT22;5265;50.006;9.202;2023-03-12T09:30:27;2.60;99.90
10437;DHT22;5265;50.006;9.202;2023-03-12T09:32:55;2.50;99.90
10437;DHT22;5265;50.006;9.202;2023-03-12T09:35:22;2.60;99.90
10437;DHT22;5265;50.006;9.202;2023-03-12T09:37:49;2.90;99.90
10437;DHT22;5265;50.006;9.202;2023-03-12T09:40:17;2.70;99.90
10437;DHT22;5265;50.006;9.202;2023-03-12T09:42:47;2.60;99.90
10437;DHT22;5265;50.006;9.202;2023-03-12T09:45:16;3.00;99.90
10437;DHT22;5265;50.006;9.202;2023-03-12T09:47:45;2.40;99.90
10437;DHT22;5265;50.006;9.202;2023-03-12T09:50:16;2.50;99.90
10437;DHT22;5265;50.006;9.202;2023-03-12T09:52:47;2.70;99.90
10437;DHT22;5265;50.006;9.202;2023-03-12T09:55:17;2.60;99.90
10437;DHT22;5265;50.006;9.202;2023-03-12T09:57:48;3.00;99.90
10437;DHT22;5265;50.006;9.202;2023-03-12T10:00:17;2.90;99.90
10437;DHT22;5265;50.006;9.202;2023-03-12T10:03:01;3.00;99.90
10437;DHT22;5265;50.006;9.202;2023-03-12T10:05:34;2.90;99.90
10437;DHT22;5265;50.006;9.202;2023-03-12T10:08:03;3.10;99.90
10437;DHT22;5265;50.006;9.202;2023-03-12T10:10:36;2.70;99.90
10437;DHT22;5265;50.006;9.202;2023-03-12T10:16:03;3.10;99.90
10437;DHT22;5265;50.006;9.202;2023-03-12T10:18:36;3.00;99.90
10437;DHT22;5265;50.006;9.202;2023-03-12T10:21:17;3.50;99.90
10437;DHT22;5265;50.006;9.202;2023-03-12T10:23:55;2.90;99.90
10437;DHT22;5265;50.006;9.202;2023-03-12T10:26:28;3.30;99.90
10437;DHT22;5265;50.006;9.202;2023-03-12T10:28:58;3.70;99.90
10437;DHT22;5265;50.006;9.202;2023-03-12T10:31:28;3.10;99.90
10437;DHT22;5265;50.006;9.202;2023-03-12T10:33:58;3.60;99.90
10437;DHT22;5265;50.006;9.202;2023-03-12T10:36:27;2.70;99.90
10437;DHT22;5265;50.006;9.202;2023-03-12T10:38:55;3.30;99.90
10437;DHT22;5265;50.006;9.202;2023-03-12T10:41:23;3.50;99.90
10437;DHT22;5265;50.006;9.202;2023-03-12T10:43:51;3.40;99.90
10437;DHT22;5265;50.006;9.202;2023-03-12T10:46:28;2.90;99.90
10437;DHT22;5265;50.006;9.202;2023-03-12T10:51:46;3.20;99.90
10437;DHT22;5265;50.006;9.202;2023-03-12T10:54:22;2.80;99.90
10437;DHT22;5265;50.006;9.202;2023-03-12T10:56:49;3.10;99.90
10437;DHT22;5265;50.006;9.202;2023-03-12T10:59:19;3.70;99.90
10437;DHT22;5265;50.006;9.202;2023-03-12T11:01:46;3.40;99.90
10437;DHT22;5265;50.006;9.202;2023-03-12T11:04:16;3.40;99.90
10437;DHT22;5265;50.006;9.202;2023-03-12T11:06:46;3.60;99.90
10437;DHT22;5265;50.006;9.202;2023-03-12T11:09:28;3.30;99.90
10437;DHT22;5265;50.006;9.202;2023-03-12T11:11:55;3.50;99.90
10437;DHT22;5265;50.006;9.202;2023-03-12T11:14:24;3.60;99.90
10437;DHT22;5265;50.006;9.202;2023-03-12T11:16:53;3.60;99.90
10437;DHT22;5265;50.006;9.202;2023-03-12T11:19:29;3.60;99.90
10437;DHT22;5265;50.006;9.202;2023-03-12T11:21:59;3.90;99.90
10437;DHT22;5265;50.006;9.202;2023-03-12T11:24:27;3.50;99.90
10437;DHT22;5265;50.006;9.202;2023-03-12T11:26:55;3.50;99.90
10437;DHT22;5265;50.006;9.202;2023-03-12T11:29:26;3.50;99.90
10437;DHT22;5265;50.006;9.202;2023-03-12T11:31:57;3.90;99.90
10437;DHT22;5265;50.006;9.202;2023-03-12T11:34:26;4.20;99.90
10437;DHT22;5265;50.006;9.202;2023-03-12T11:36:55;4.20;99.90
10437;DHT22;5265;50.006;9.202;2023-03-12T22:01:17;8.60;99.90
10437;DHT22;5265;50.006;9.202;2023-03-12T22:03:44;8.70;99.90
10437;DHT22;5265;50.006;9.202;2023-03-12T22:06:12;8.40;99.90
10437;DHT22;5265;50.006;9.202;2023-03-12T22:08:39;8.40;99.90
10437;DHT22;5265;50.006;9.202;2023-03-12T22:11:07;8.30;99.90
10437;DHT22;5265;50.006;9.202;2023-03-12T22:13:34;8.30;99.90
10437;DHT22;5265;50.006;9.202;2023-03-12T22:16:02;8.30;99.90
10437;DHT22;5265;50.006;9.202;2023-03-12T22:18:31;8.30;99.90
10437;DHT22;5265;50.006;9.202;2023-03-12T22:21:01;8.30;99.90
10437;DHT22;5265;50.006;9.202;2023-03-12T22:23:29;8.20;99.90
10437;DHT22;5265;50.006;9.202;2023-03-12T22:25:58;8.30;99.90
10437;DHT22;5265;50.006;9.202;2023-03-12T22:28:25;8.20;99.90
10437;DHT22;5265;50.006;9.202;2023-03-12T22:30:55;8.10;99.90
10437;DHT22;5265;50.006;9.202;2023-03-12T22:33:22;8.50;99.90
10437;DHT22;5265;50.006;9.202;2023-03-12T22:35:51;8.50;99.90
10437;DHT22;5265;50.006;9.202;2023-03-12T22:38:18;8.00;99.90
10437;DHT22;5265;50.006;9.202;2023-03-12T22:43:13;7.90;99.90
10437;DHT22;5265;50.006;9.202;2023-03-12T22:45:40;7.90;99.90
10437;DHT22;5265;50.006;9.202;2023-03-12T22:48:07;7.90;99.90
10437;DHT22;5265;50.006;9.202;2023-03-12T22:53:04;8.20;99.90
10437;DHT22;5265;50.006;9.202;2023-03-12T22:55:31;7.80;99.90
10437;DHT22;5265;50.006;9.202;2023-03-12T22:57:58;7.80;99.90
10437;DHT22;5265;50.006;9.202;2023-03-12T23:02:54;7.70;99.90
10437;DHT22;5265;50.006;9.202;2023-03-12T23:07:49;7.60;99.90
10437;DHT22;5265;50.006;9.202;2023-03-12T23:12:46;7.50;99.90
10437;DHT22;5265;50.006;9.202;2023-03-12T23:17:42;7.50;99.90
10437;DHT22;5265;50.006;9.202;2023-03-12T23:20:09;7.60;99.90
10437;DHT22;5265;50.006;9.202;2023-03-12T23:22:38;7.60;99.90
10437;DHT22;5265;50.006;9.202;2023-03-12T23:25:05;7.50;99.90
10437;DHT22;5265;50.006;9.202;2023-03-12T23:27:32;7.50;99.90
10437;DHT22;5265;50.006;9.202;2023-03-12T23:30:01;7.50;99.90
10437;DHT22;5265;50.006;9.202;2023-03-12T23:32:28;7.40;99.90
10437;DHT22;5265;50.006;9.202;2023-03-12T23:34:55;7.40;99.90
10437;DHT22;5265;50.006;9.202;2023-03-12T23:37:22;7.40;99.90
10437;DHT22;5265;50.006;9.202;2023-03-12T23:39:49;7.40;99.90
10437;DHT22;5265;50.006;9.202;2023-03-12T23:42:16;7.40;99.90
10437;DHT22;5265;50.006;9.202;2023-03-12T23:44:44;7.40;99.90
10437;DHT22;5265;50.006;9.202;2023-03-12T23:47:12;7.30;99.90
10437;DHT22;5265;50.006;9.202;2023-03-12T23:49:39;7.30;99.90
10437;DHT22;5265;50.006;9.202;2023-03-12T23:52:06;7.40;99.90
10437;DHT22;5265;50.006;9.202;2023-03-12T23:54:34;7.40;99.90
10437;DHT22;5265;50.006;9.202;2023-03-12T23:57:01;7.40;99.90
10437;DHT22;5265;50.006;9.202;2023-03-12T23:59:28;7.40;99.90
